sensor_id;sensor_type;location;lat;lon;timestamp;P1;durP1;ratioP1;P2;durP2;ratioP2
22046;SDS011;11187;49.412;20.956;2023-07-29T00:01:09;18.52;;;16.90;;
22046;SDS011;11187;49.412;20.956;2023-07-29T00:04:03;18.40;;;16.58;;
22046;SDS011;11187;49.412;20.956;2023-07-29T00:06:57;26.88;;;16.42;;
22046;SDS011;11187;49.412;20.956;2023-07-29T00:09:51;20.02;;;18.08;;
22046;SDS011;11187;49.412;20.956;2023-07-29T00:12:45;19.08;;;17.58;;
22046;SDS011;11187;49.412;20.956;2023-07-29T00:15:18;20.48;;;18.58;;
22046;SDS011;11187;49.412;20.956;2023-07-29T00:18:05;66.15;;;17.15;;
22046;SDS011;11187;49.412;20.956;2023-07-29T00:20:38;19.55;;;17.35;;
22046;SDS011;11187;49.412;20.956;2023-07-29T00:23:25;18.38;;;16.88;;
22046;SDS011;11187;49.412;20.956;2023-07-29T00:25:58;22.27;;;16.63;;
22046;SDS011;11187;49.412;20.956;2023-07-29T00:28:52;61.65;;;17.85;;
22046;SDS011;11187;49.412;20.956;2023-07-29T00:31:25;26.40;;;17.60;;
22046;SDS011;11187;49.412;20.956;2023-07-29T00:34:12;17.30;;;16.00;;
22046;SDS011;11187;49.412;20.956;2023-07-29T00:36:50;29.77;;;17.23;;
22046;SDS011;11187;49.412;20.956;2023-07-29T00:39:37;17.70;;;14.90;;
22046;SDS011;11187;49.412;20.956;2023-07-29T00:42:10;29.13;;;18.08;;
22046;SDS011;11187;49.412;20.956;2023-07-29T00:44:57;37.45;;;26.38;;
22046;SDS011;11187;49.412;20.956;2023-07-29T00:47:30;26.13;;;17.38;;
22046;SDS011;11187;49.412;20.956;2023-07-29T00:50:17;17.98;;;16.50;;
22046;SDS011;11187;49.412;20.956;2023-07-29T00:52:50;17.90;;;16.33;;
22046;SDS011;11187;49.412;20.956;2023-07-29T00:55:44;19.58;;;17.85;;
22046;SDS011;11187;49.412;20.956;2023-07-29T00:58:38;24.38;;;16.83;;
22046;SDS011;11187;49.412;20.956;2023-07-29T01:01:32;19.42;;;17.77;;
22046;SDS011;11187;49.412;20.956;2023-07-29T01:04:05;19.85;;;16.50;;
22046;SDS011;11187;49.412;20.956;2023-07-29T01:10:03;19.00;;;17.35;;
22046;SDS011;11187;49.412;20.956;2023-07-29T01:16:10;27.65;;;17.58;;
22046;SDS011;11187;49.412;20.956;2023-07-29T01:18:50;19.15;;;17.05;;
22046;SDS011;11187;49.412;20.956;2023-07-29T01:21:40;18.27;;;16.67;;
22046;SDS011;11187;49.412;20.956;2023-07-29T01:24:14;21.38;;;19.38;;
22046;SDS011;11187;49.412;20.956;2023-07-29T01:27:01;19.85;;;17.70;;
22046;SDS011;11187;49.412;20.956;2023-07-29T01:29:37;19.88;;;18.35;;
22046;SDS011;11187;49.412;20.956;2023-07-29T01:38:45;17.52;;;16.00;;
22046;SDS011;11187;49.412;20.956;2023-07-29T01:41:20;18.90;;;17.70;;
22046;SDS011;11187;49.412;20.956;2023-07-29T01:44:16;23.13;;;15.38;;
22046;SDS011;11187;49.412;20.956;2023-07-29T01:46:51;22.15;;;16.40;;
22046;SDS011;11187;49.412;20.956;2023-07-29T01:49:38;20.45;;;15.68;;
22046;SDS011;11187;49.412;20.956;2023-07-29T01:52:11;25.67;;;16.23;;
22046;SDS011;11187;49.412;20.956;2023-07-29T01:55:05;40.42;;;17.60;;
22046;SDS011;11187;49.412;20.956;2023-07-29T01:57:59;18.67;;;16.50;;
22046;SDS011;11187;49.412;20.956;2023-07-29T02:00:32;29.45;;;17.13;;
22046;SDS011;11187;49.412;20.956;2023-07-29T02:03:19;29.85;;;17.02;;
22046;SDS011;11187;49.412;20.956;2023-07-29T02:05:52;46.35;;;17.23;;
22046;SDS011;11187;49.412;20.956;2023-07-29T02:08:39;17.20;;;15.60;;
22046;SDS011;11187;49.412;20.956;2023-07-29T02:11:13;53.72;;;16.27;;
22046;SDS011;11187;49.412;20.956;2023-07-29T02:14:13;29.55;;;16.38;;
22046;SDS011;11187;49.412;20.956;2023-07-29T02:16:46;45.22;;;16.40;;
22046;SDS011;11187;49.412;20.956;2023-07-29T02:22:25;35.53;;;15.80;;
22046;SDS011;11187;49.412;20.956;2023-07-29T02:25:12;23.75;;;15.52;;
22046;SDS011;11187;49.412;20.956;2023-07-29T02:27:45;33.67;;;14.85;;
22046;SDS011;11187;49.412;20.956;2023-07-29T02:30:32;34.60;;;16.83;;
22046;SDS011;11187;49.412;20.956;2023-07-29T02:33:19;16.17;;;14.57;;
22046;SDS011;11187;49.412;20.956;2023-07-29T02:36:13;21.63;;;16.20;;
22046;SDS011;11187;49.412;20.956;2023-07-29T02:39:07;25.10;;;16.48;;
22046;SDS011;11187;49.412;20.956;2023-07-29T02:41:43;27.02;;;17.02;;
22046;SDS011;11187;49.412;20.956;2023-07-29T02:44:30;35.88;;;18.10;;
22046;SDS011;11187;49.412;20.956;2023-07-29T02:47:03;34.90;;;17.05;;
22046;SDS011;11187;49.412;20.956;2023-07-29T02:49:50;17.67;;;16.27;;
22046;SDS011;11187;49.412;20.956;2023-07-29T02:52:23;20.30;;;16.20;;
22046;SDS011;11187;49.412;20.956;2023-07-29T02:55:17;21.92;;;16.25;;
22046;SDS011;11187;49.412;20.956;2023-07-29T02:58:11;21.92;;;14.07;;
22046;SDS011;11187;49.412;20.956;2023-07-29T03:00:47;23.05;;;14.05;;
22046;SDS011;11187;49.412;20.956;2023-07-29T03:03:34;16.40;;;14.30;;
22046;SDS011;11187;49.412;20.956;2023-07-29T03:06:08;23.33;;;17.98;;
22046;SDS011;11187;49.412;20.956;2023-07-29T03:08:57;17.20;;;15.10;;
22046;SDS011;11187;49.412;20.956;2023-07-29T03:11:30;16.85;;;15.50;;
22046;SDS011;11187;49.412;20.956;2023-07-29T03:14:17;17.52;;;16.23;;
22046;SDS011;11187;49.412;20.956;2023-07-29T03:16:50;25.88;;;16.33;;
22046;SDS011;11187;49.412;20.956;2023-07-29T03:19:38;18.27;;;16.40;;
22046;SDS011;11187;49.412;20.956;2023-07-29T03:22:11;18.17;;;16.63;;
22046;SDS011;11187;49.412;20.956;2023-07-29T03:24:58;18.60;;;16.67;;
22046;SDS011;11187;49.412;20.956;2023-07-29T03:27:31;19.20;;;16.60;;
22046;SDS011;11187;49.412;20.956;2023-07-29T03:30:19;18.08;;;16.75;;
22046;SDS011;11187;49.412;20.956;2023-07-29T03:32:53;19.60;;;17.77;;
22046;SDS011;11187;49.412;20.956;2023-07-29T03:35:40;18.95;;;17.30;;
22046;SDS011;11187;49.412;20.956;2023-07-29T03:38:17;18.13;;;16.52;;
22046;SDS011;11187;49.412;20.956;2023-07-29T03:41:11;17.15;;;15.93;;
22046;SDS011;11187;49.412;20.956;2023-07-29T03:43:44;17.52;;;16.15;;
22046;SDS011;11187;49.412;20.956;2023-07-29T03:46:38;16.50;;;15.07;;
22046;SDS011;11187;49.412;20.956;2023-07-29T03:49:32;17.02;;;15.43;;
22046;SDS011;11187;49.412;20.956;2023-07-29T03:52:05;16.92;;;15.70;;
22046;SDS011;11187;49.412;20.956;2023-07-29T03:54:59;17.35;;;16.23;;
22046;SDS011;11187;49.412;20.956;2023-07-29T03:57:53;16.33;;;15.15;;
22046;SDS011;11187;49.412;20.956;2023-07-29T04:00:47;16.92;;;15.65;;
22046;SDS011;11187;49.412;20.956;2023-07-29T04:03:41;17.77;;;16.27;;
22046;SDS011;11187;49.412;20.956;2023-07-29T04:06:35;18.50;;;17.10;;
22046;SDS011;11187;49.412;20.956;2023-07-29T04:09:08;18.38;;;16.98;;
22046;SDS011;11187;49.412;20.956;2023-07-29T04:11:55;18.30;;;17.00;;
22046;SDS011;11187;49.412;20.956;2023-07-29T04:14:28;18.20;;;16.88;;
22046;SDS011;11187;49.412;20.956;2023-07-29T04:17:15;18.55;;;17.25;;
22046;SDS011;11187;49.412;20.956;2023-07-29T04:19:48;18.70;;;17.35;;
22046;SDS011;11187;49.412;20.956;2023-07-29T04:22:35;19.65;;;18.15;;
22046;SDS011;11187;49.412;20.956;2023-07-29T04:25:08;20.23;;;18.70;;
22046;SDS011;11187;49.412;20.956;2023-07-29T04:28:02;19.77;;;18.33;;
22046;SDS011;11187;49.412;20.956;2023-07-29T04:30:56;17.80;;;16.40;;
22046;SDS011;11187;49.412;20.956;2023-07-29T04:33:50;17.70;;;16.10;;
22046;SDS011;11187;49.412;20.956;2023-07-29T04:36:23;18.17;;;16.88;;
22046;SDS011;11187;49.412;20.956;2023-07-29T04:39:17;18.15;;;16.33;;
22046;SDS011;11187;49.412;20.956;2023-07-29T04:42:11;19.25;;;18.05;;
22046;SDS011;11187;49.412;20.956;2023-07-29T04:44:44;18.83;;;17.58;;
22046;SDS011;11187;49.412;20.956;2023-07-29T04:47:38;19.65;;;17.52;;
22046;SDS011;11187;49.412;20.956;2023-07-29T04:50:11;17.05;;;15.85;;
22046;SDS011;11187;49.412;20.956;2023-07-29T04:53:05;20.27;;;18.98;;
22046;SDS011;11187;49.412;20.956;2023-07-29T04:55:40;20.10;;;18.80;;
22046;SDS011;11187;49.412;20.956;2023-07-29T04:58:28;18.83;;;17.33;;
22046;SDS011;11187;49.412;20.956;2023-07-29T05:01:03;19.83;;;18.20;;
22046;SDS011;11187;49.412;20.956;2023-07-29T05:03:57;19.48;;;17.98;;
22046;SDS011;11187;49.412;20.956;2023-07-29T05:06:30;19.65;;;18.27;;
22046;SDS011;11187;49.412;20.956;2023-07-29T05:09:24;18.38;;;16.80;;
22046;SDS011;11187;49.412;20.956;2023-07-29T05:12:18;18.60;;;17.30;;
22046;SDS011;11187;49.412;20.956;2023-07-29T05:14:51;17.27;;;16.17;;
22046;SDS011;11187;49.412;20.956;2023-07-29T05:17:38;17.50;;;16.17;;
22046;SDS011;11187;49.412;20.956;2023-07-29T05:20:11;19.17;;;17.55;;
22046;SDS011;11187;49.412;20.956;2023-07-29T05:23:05;17.98;;;16.77;;
22046;SDS011;11187;49.412;20.956;2023-07-29T05:25:38;19.17;;;17.88;;
22046;SDS011;11187;49.412;20.956;2023-07-29T05:28:25;18.00;;;16.70;;
22046;SDS011;11187;49.412;20.956;2023-07-29T05:31:00;17.77;;;16.48;;
22046;SDS011;11187;49.412;20.956;2023-07-29T05:33:47;16.42;;;15.32;;
22046;SDS011;11187;49.412;20.956;2023-07-29T05:36:20;17.55;;;16.45;;
22046;SDS011;11187;49.412;20.956;2023-07-29T05:39:14;17.75;;;16.65;;
22046;SDS011;11187;49.412;20.956;2023-07-29T05:42:08;17.35;;;16.05;;
22046;SDS011;11187;49.412;20.956;2023-07-29T05:44:41;15.10;;;14.00;;
22046;SDS011;11187;49.412;20.956;2023-07-29T05:47:30;17.40;;;16.08;;
22046;SDS011;11187;49.412;20.956;2023-07-29T05:50:04;16.80;;;15.80;;
22046;SDS011;11187;49.412;20.956;2023-07-29T05:52:58;16.92;;;15.73;;
22046;SDS011;11187;49.412;20.956;2023-07-29T05:55:31;17.15;;;15.95;;
22046;SDS011;11187;49.412;20.956;2023-07-29T05:58:25;19.08;;;17.77;;
22046;SDS011;11187;49.412;20.956;2023-07-29T06:01:19;16.67;;;15.57;;
22046;SDS011;11187;49.412;20.956;2023-07-29T06:03:54;17.35;;;16.08;;
22046;SDS011;11187;49.412;20.956;2023-07-29T06:06:41;17.20;;;16.15;;
22046;SDS011;11187;49.412;20.956;2023-07-29T06:09:14;18.33;;;17.02;;
22046;SDS011;11187;49.412;20.956;2023-07-29T06:12:01;20.33;;;18.90;;
22046;SDS011;11187;49.412;20.956;2023-07-29T06:14:34;20.08;;;18.88;;
22046;SDS011;11187;49.412;20.956;2023-07-29T06:17:21;20.77;;;19.02;;
22046;SDS011;11187;49.412;20.956;2023-07-29T06:19:54;19.58;;;18.27;;
22046;SDS011;11187;49.412;20.956;2023-07-29T06:22:41;19.60;;;18.30;;
22046;SDS011;11187;49.412;20.956;2023-07-29T06:25:15;15.57;;;14.20;;
22046;SDS011;11187;49.412;20.956;2023-07-29T06:28:02;17.30;;;16.10;;
22046;SDS011;11187;49.412;20.956;2023-07-29T06:30:35;17.73;;;16.63;;
22046;SDS011;11187;49.412;20.956;2023-07-29T06:33:29;16.90;;;15.70;;
22046;SDS011;11187;49.412;20.956;2023-07-29T06:36:23;18.10;;;16.90;;
22046;SDS011;11187;49.412;20.956;2023-07-29T06:38:56;20.55;;;19.05;;
22046;SDS011;11187;49.412;20.956;2023-07-29T06:41:43;20.70;;;18.85;;
22046;SDS011;11187;49.412;20.956;2023-07-29T06:44:16;18.70;;;17.10;;
22046;SDS011;11187;49.412;20.956;2023-07-29T06:47:03;18.17;;;16.67;;
22046;SDS011;11187;49.412;20.956;2023-07-29T06:49:36;18.15;;;16.65;;
22046;SDS011;11187;49.412;20.956;2023-07-29T06:52:23;20.17;;;18.52;;
22046;SDS011;11187;49.412;20.956;2023-07-29T06:54:56;23.20;;;21.60;;
22046;SDS011;11187;49.412;20.956;2023-07-29T06:57:43;20.30;;;18.25;;
22046;SDS011;11187;49.412;20.956;2023-07-29T07:00:16;18.17;;;16.55;;
22046;SDS011;11187;49.412;20.956;2023-07-29T07:03:10;17.67;;;16.23;;
22046;SDS011;11187;49.412;20.956;2023-07-29T07:05:43;17.15;;;15.80;;
22046;SDS011;11187;49.412;20.956;2023-07-29T07:08:37;19.10;;;17.85;;
22046;SDS011;11187;49.412;20.956;2023-07-29T07:11:31;16.67;;;15.48;;
22046;SDS011;11187;49.412;20.956;2023-07-29T07:14:04;16.80;;;15.45;;
22046;SDS011;11187;49.412;20.956;2023-07-29T07:16:58;16.67;;;15.07;;
22046;SDS011;11187;49.412;20.956;2023-07-29T07:19:31;17.10;;;15.70;;
22046;SDS011;11187;49.412;20.956;2023-07-29T07:22:25;18.02;;;16.83;;
22046;SDS011;11187;49.412;20.956;2023-07-29T07:24:58;18.48;;;17.15;;
22046;SDS011;11187;49.412;20.956;2023-07-29T07:27:47;19.35;;;18.05;;
22046;SDS011;11187;49.412;20.956;2023-07-29T07:30:21;18.73;;;17.15;;
22046;SDS011;11187;49.412;20.956;2023-07-29T07:33:09;17.67;;;16.40;;
22046;SDS011;11187;49.412;20.956;2023-07-29T07:35:42;16.85;;;15.65;;
22046;SDS011;11187;49.412;20.956;2023-07-29T07:38:29;20.10;;;18.80;;
22046;SDS011;11187;49.412;20.956;2023-07-29T07:41:02;17.85;;;16.27;;
22046;SDS011;11187;49.412;20.956;2023-07-29T07:43:49;16.38;;;15.10;;
22046;SDS011;11187;49.412;20.956;2023-07-29T07:46:22;17.50;;;16.10;;
22046;SDS011;11187;49.412;20.956;2023-07-29T07:49:09;17.38;;;16.10;;
22046;SDS011;11187;49.412;20.956;2023-07-29T07:51:43;20.63;;;19.33;;
22046;SDS011;11187;49.412;20.956;2023-07-29T07:54:33;20.70;;;18.40;;
22046;SDS011;11187;49.412;20.956;2023-07-29T07:57:06;18.38;;;17.08;;
22046;SDS011;11187;49.412;20.956;2023-07-29T08:00:00;18.38;;;17.00;;
22046;SDS011;11187;49.412;20.956;2023-07-29T08:02:33;18.27;;;16.83;;
22046;SDS011;11187;49.412;20.956;2023-07-29T08:05:20;20.55;;;19.17;;
22046;SDS011;11187;49.412;20.956;2023-07-29T08:07:53;18.63;;;17.42;;
22046;SDS011;11187;49.412;20.956;2023-07-29T08:10:40;16.75;;;15.65;;
22046;SDS011;11187;49.412;20.956;2023-07-29T08:13:13;16.27;;;15.18;;
22046;SDS011;11187;49.412;20.956;2023-07-29T08:16:00;19.58;;;18.08;;
22046;SDS011;11187;49.412;20.956;2023-07-29T08:18:33;21.52;;;20.02;;
22046;SDS011;11187;49.412;20.956;2023-07-29T08:21:27;23.70;;;21.73;;
22046;SDS011;11187;49.412;20.956;2023-07-29T08:24:21;20.80;;;18.88;;
22046;SDS011;11187;49.412;20.956;2023-07-29T08:27:15;21.42;;;19.67;;
22046;SDS011;11187;49.412;20.956;2023-07-29T08:29:48;22.05;;;20.05;;
22046;SDS011;11187;49.412;20.956;2023-07-29T08:32:35;21.13;;;19.73;;
22046;SDS011;11187;49.412;20.956;2023-07-29T08:35:08;19.15;;;17.77;;
22046;SDS011;11187;49.412;20.956;2023-07-29T08:37:55;19.58;;;17.88;;
22046;SDS011;11187;49.412;20.956;2023-07-29T08:40:29;21.15;;;19.58;;
22046;SDS011;11187;49.412;20.956;2023-07-29T08:43:16;23.25;;;21.65;;
22046;SDS011;11187;49.412;20.956;2023-07-29T08:45:52;21.63;;;20.13;;
22046;SDS011;11187;49.412;20.956;2023-07-29T08:48:39;22.00;;;20.60;;
22046;SDS011;11187;49.412;20.956;2023-07-29T08:51:14;20.38;;;19.08;;
22046;SDS011;11187;49.412;20.956;2023-07-29T08:54:03;20.48;;;19.13;;
22046;SDS011;11187;49.412;20.956;2023-07-29T08:56:36;20.25;;;18.73;;
22046;SDS011;11187;49.412;20.956;2023-07-29T08:59:23;20.60;;;18.92;;
22046;SDS011;11187;49.412;20.956;2023-07-29T09:01:57;19.88;;;18.58;;
22046;SDS011;11187;49.412;20.956;2023-07-29T09:04:45;20.77;;;19.23;;
22046;SDS011;11187;49.412;20.956;2023-07-29T09:07:18;21.10;;;19.73;;
22046;SDS011;11187;49.412;20.956;2023-07-29T09:10:08;21.95;;;20.23;;
22046;SDS011;11187;49.412;20.956;2023-07-29T09:12:43;20.80;;;18.88;;
22046;SDS011;11187;49.412;20.956;2023-07-29T09:15:31;20.88;;;19.40;;
22046;SDS011;11187;49.412;20.956;2023-07-29T09:18:09;21.85;;;20.45;;
22046;SDS011;11187;49.412;20.956;2023-07-29T09:20:59;20.90;;;19.60;;
22046;SDS011;11187;49.412;20.956;2023-07-29T09:23:39;18.85;;;17.65;;
22046;SDS011;11187;49.412;20.956;2023-07-29T09:26:30;16.98;;;15.98;;
22046;SDS011;11187;49.412;20.956;2023-07-29T09:29:05;17.13;;;16.13;;
22046;SDS011;11187;49.412;20.956;2023-07-29T09:32:17;16.95;;;15.85;;
22046;SDS011;11187;49.412;20.956;2023-07-29T09:35:11;19.05;;;17.73;;
22046;SDS011;11187;49.412;20.956;2023-07-29T09:37:46;18.45;;;16.67;;
22046;SDS011;11187;49.412;20.956;2023-07-29T09:40:39;20.55;;;19.23;;
22046;SDS011;11187;49.412;20.956;2023-07-29T09:43:34;27.88;;;19.65;;
22046;SDS011;11187;49.412;20.956;2023-07-29T09:46:35;21.73;;;20.13;;
22046;SDS011;11187;49.412;20.956;2023-07-29T09:49:09;22.25;;;19.95;;
22046;SDS011;11187;49.412;20.956;2023-07-29T09:52:03;21.70;;;20.23;;
22046;SDS011;11187;49.412;20.956;2023-07-29T09:54:37;21.80;;;20.40;;
22046;SDS011;11187;49.412;20.956;2023-07-29T09:57:32;21.55;;;20.15;;
22046;SDS011;11187;49.412;20.956;2023-07-29T10:00:27;21.30;;;19.88;;
22046;SDS011;11187;49.412;20.956;2023-07-29T10:03:00;18.90;;;17.70;;
22046;SDS011;11187;49.412;20.956;2023-07-29T10:05:54;18.63;;;16.95;;
22046;SDS011;11187;49.412;20.956;2023-07-29T10:08:48;21.40;;;20.00;;
22046;SDS011;11187;49.412;20.956;2023-07-29T10:11:22;19.98;;;18.60;;
22046;SDS011;11187;49.412;20.956;2023-07-29T10:14:10;19.67;;;18.17;;
22046;SDS011;11187;49.412;20.956;2023-07-29T10:16:44;21.35;;;19.85;;
22046;SDS011;11187;49.412;20.956;2023-07-29T10:19:39;20.73;;;19.33;;
22046;SDS011;11187;49.412;20.956;2023-07-29T10:22:40;20.27;;;18.80;;
22046;SDS011;11187;49.412;20.956;2023-07-29T10:25:19;20.40;;;18.73;;
22046;SDS011;11187;49.412;20.956;2023-07-29T10:28:16;20.33;;;18.92;;
22046;SDS011;11187;49.412;20.956;2023-07-29T10:31:15;19.70;;;18.17;;
22046;SDS011;11187;49.412;20.956;2023-07-29T10:34:09;21.35;;;19.75;;
22046;SDS011;11187;49.412;20.956;2023-07-29T10:37:04;20.13;;;18.83;;
22046;SDS011;11187;49.412;20.956;2023-07-29T10:39:39;19.75;;;18.35;;
22046;SDS011;11187;49.412;20.956;2023-07-29T10:42:28;20.65;;;19.25;;
22046;SDS011;11187;49.412;20.956;2023-07-29T10:45:17;22.77;;;21.25;;
22046;SDS011;11187;49.412;20.956;2023-07-29T10:51:22;21.17;;;19.42;;
22046;SDS011;11187;49.412;20.956;2023-07-29T10:54:11;20.50;;;18.85;;
22046;SDS011;11187;49.412;20.956;2023-07-29T10:56:47;20.33;;;18.60;;
22046;SDS011;11187;49.412;20.956;2023-07-29T10:59:34;20.15;;;18.80;;
22046;SDS011;11187;49.412;20.956;2023-07-29T11:02:17;21.05;;;19.38;;
22046;SDS011;11187;49.412;20.956;2023-07-29T11:07:57;20.35;;;18.92;;
22046;SDS011;11187;49.412;20.956;2023-07-29T11:11:24;21.77;;;20.05;;
22046;SDS011;11187;49.412;20.956;2023-07-29T11:14:11;21.73;;;19.83;;
22046;SDS011;11187;49.412;20.956;2023-07-29T11:16:46;19.50;;;17.98;;
22046;SDS011;11187;49.412;20.956;2023-07-29T11:19:32;21.38;;;19.77;;
22046;SDS011;11187;49.412;20.956;2023-07-29T11:22:07;22.50;;;20.92;;
22046;SDS011;11187;49.412;20.956;2023-07-29T11:25:03;21.92;;;20.17;;
22046;SDS011;11187;49.412;20.956;2023-07-29T11:27:59;20.85;;;19.35;;
22046;SDS011;11187;49.412;20.956;2023-07-29T11:30:54;20.25;;;18.52;;
22046;SDS011;11187;49.412;20.956;2023-07-29T11:33:29;22.80;;;20.90;;
22046;SDS011;11187;49.412;20.956;2023-07-29T11:36:17;22.90;;;21.15;;
22046;SDS011;11187;49.412;20.956;2023-07-29T11:38:51;22.98;;;21.00;;
22046;SDS011;11187;49.412;20.956;2023-07-29T11:41:38;21.98;;;20.20;;
22046;SDS011;11187;49.412;20.956;2023-07-29T11:44:17;20.02;;;18.58;;
22046;SDS011;11187;49.412;20.956;2023-07-29T11:47:07;23.90;;;22.20;;
22046;SDS011;11187;49.412;20.956;2023-07-29T11:49:44;25.65;;;23.33;;
22046;SDS011;11187;49.412;20.956;2023-07-29T11:52:39;22.08;;;20.63;;
22046;SDS011;11187;49.412;20.956;2023-07-29T11:55:34;20.52;;;19.13;;
22046;SDS011;11187;49.412;20.956;2023-07-29T11:58:10;19.05;;;17.75;;
22046;SDS011;11187;49.412;20.956;2023-07-29T12:00:57;22.40;;;20.70;;
22046;SDS011;11187;49.412;20.956;2023-07-29T12:03:31;21.08;;;19.60;;
22046;SDS011;11187;49.412;20.956;2023-07-29T12:06:24;20.63;;;19.15;;
22046;SDS011;11187;49.412;20.956;2023-07-29T12:09:01;20.45;;;18.95;;
22046;SDS011;11187;49.412;20.956;2023-07-29T12:11:48;21.17;;;19.70;;
22046;SDS011;11187;49.412;20.956;2023-07-29T12:14:21;19.65;;;18.25;;
22046;SDS011;11187;49.412;20.956;2023-07-29T12:17:08;19.67;;;18.15;;
22046;SDS011;11187;49.412;20.956;2023-07-29T12:19:42;18.75;;;17.45;;
22046;SDS011;11187;49.412;20.956;2023-07-29T12:22:28;19.50;;;18.13;;
22046;SDS011;11187;49.412;20.956;2023-07-29T12:25:02;20.05;;;18.50;;
22046;SDS011;11187;49.412;20.956;2023-07-29T12:27:49;20.48;;;18.80;;
22046;SDS011;11187;49.412;20.956;2023-07-29T12:30:23;21.85;;;20.00;;
22046;SDS011;11187;49.412;20.956;2023-07-29T12:33:10;20.67;;;18.95;;
22046;SDS011;11187;49.412;20.956;2023-07-29T12:36:04;22.23;;;20.52;;
22046;SDS011;11187;49.412;20.956;2023-07-29T12:38:38;19.10;;;17.70;;
22046;SDS011;11187;49.412;20.956;2023-07-29T12:41:24;19.42;;;18.13;;
22046;SDS011;11187;49.412;20.956;2023-07-29T12:43:58;19.75;;;18.50;;
22046;SDS011;11187;49.412;20.956;2023-07-29T12:46:46;19.85;;;18.35;;
22046;SDS011;11187;49.412;20.956;2023-07-29T12:49:20;20.00;;;18.60;;
22046;SDS011;11187;49.412;20.956;2023-07-29T12:52:08;20.35;;;18.73;;
22046;SDS011;11187;49.412;20.956;2023-07-29T12:54:42;20.33;;;18.55;;
22046;SDS011;11187;49.412;20.956;2023-07-29T12:57:35;20.38;;;18.77;;
22046;SDS011;11187;49.412;20.956;2023-07-29T13:00:09;20.77;;;19.20;;
22046;SDS011;11187;49.412;20.956;2023-07-29T13:02:56;20.20;;;18.75;;
22046;SDS011;11187;49.412;20.956;2023-07-29T13:05:30;22.67;;;21.02;;
22046;SDS011;11187;49.412;20.956;2023-07-29T13:08:25;20.50;;;19.05;;
22046;SDS011;11187;49.412;20.956;2023-07-29T13:10:59;21.40;;;19.70;;
22046;SDS011;11187;49.412;20.956;2023-07-29T13:13:45;21.55;;;19.98;;
22046;SDS011;11187;49.412;20.956;2023-07-29T13:16:19;19.38;;;17.98;;
22046;SDS011;11187;49.412;20.956;2023-07-29T13:19:05;20.25;;;18.58;;
22046;SDS011;11187;49.412;20.956;2023-07-29T13:21:39;20.25;;;18.80;;
22046;SDS011;11187;49.412;20.956;2023-07-29T13:24:32;20.65;;;19.25;;
22046;SDS011;11187;49.412;20.956;2023-07-29T13:27:26;21.35;;;19.70;;
22046;SDS011;11187;49.412;20.956;2023-07-29T13:30:21;21.33;;;19.92;;
22046;SDS011;11187;49.412;20.956;2023-07-29T13:33:15;21.33;;;19.40;;
22046;SDS011;11187;49.412;20.956;2023-07-29T13:35:50;20.60;;;18.65;;
22046;SDS011;11187;49.412;20.956;2023-07-29T13:38:36;22.90;;;21.30;;
22046;SDS011;11187;49.412;20.956;2023-07-29T13:41:10;21.58;;;19.83;;
22046;SDS011;11187;49.412;20.956;2023-07-29T13:43:56;21.35;;;19.85;;
22046;SDS011;11187;49.412;20.956;2023-07-29T13:46:31;22.75;;;21.05;;
22046;SDS011;11187;49.412;20.956;2023-07-29T13:49:24;21.42;;;19.67;;
22046;SDS011;11187;49.412;20.956;2023-07-29T13:52:18;21.58;;;19.77;;
22046;SDS011;11187;49.412;20.956;2023-07-29T13:54:52;23.80;;;21.67;;
22046;SDS011;11187;49.412;20.956;2023-07-29T13:57:38;25.00;;;22.73;;
22046;SDS011;11187;49.412;20.956;2023-07-29T14:00:13;24.77;;;22.33;;
22046;SDS011;11187;49.412;20.956;2023-07-29T14:03:00;22.08;;;19.85;;
22046;SDS011;11187;49.412;20.956;2023-07-29T14:05:35;20.52;;;19.02;;
22046;SDS011;11187;49.412;20.956;2023-07-29T14:08:30;23.80;;;21.75;;
22046;SDS011;11187;49.412;20.956;2023-07-29T14:11:04;24.55;;;22.13;;
22046;SDS011;11187;49.412;20.956;2023-07-29T14:13:50;22.13;;;20.27;;
22046;SDS011;11187;49.412;20.956;2023-07-29T14:16:25;22.58;;;20.83;;
22046;SDS011;11187;49.412;20.956;2023-07-29T14:19:18;25.48;;;23.33;;
22046;SDS011;11187;49.412;20.956;2023-07-29T14:21:53;22.83;;;21.05;;
22046;SDS011;11187;49.412;20.956;2023-07-29T14:24:40;25.48;;;23.48;;
22046;SDS011;11187;49.412;20.956;2023-07-29T14:27:14;25.63;;;23.55;;
22046;SDS011;11187;49.412;20.956;2023-07-29T14:30:00;24.55;;;22.50;;
22046;SDS011;11187;49.412;20.956;2023-07-29T14:32:35;24.95;;;23.15;;
22046;SDS011;11187;49.412;20.956;2023-07-29T14:35:30;25.45;;;23.50;;
22046;SDS011;11187;49.412;20.956;2023-07-29T14:38:04;21.48;;;19.98;;
22046;SDS011;11187;49.412;20.956;2023-07-29T14:40:50;23.90;;;22.30;;
22046;SDS011;11187;49.412;20.956;2023-07-29T14:43:26;21.55;;;20.05;;
22046;SDS011;11187;49.412;20.956;2023-07-29T14:46:20;25.13;;;23.42;;
22046;SDS011;11187;49.412;20.956;2023-07-29T14:49:14;28.30;;;26.25;;
22046;SDS011;11187;49.412;20.956;2023-07-29T14:52:08;23.23;;;21.42;;
22046;SDS011;11187;49.412;20.956;2023-07-29T14:54:42;21.67;;;20.10;;
22046;SDS011;11187;49.412;20.956;2023-07-29T14:57:28;21.25;;;19.50;;
22046;SDS011;11187;49.412;20.956;2023-07-29T15:00:02;21.85;;;20.23;;
22046;SDS011;11187;49.412;20.956;2023-07-29T15:02:49;22.02;;;19.63;;
22046;SDS011;11187;49.412;20.956;2023-07-29T15:05:23;22.23;;;20.40;;
22046;SDS011;11187;49.412;20.956;2023-07-29T15:08:10;14.32;;;13.23;;
22046;SDS011;11187;49.412;20.956;2023-07-29T15:10:47;20.08;;;18.52;;
22046;SDS011;11187;49.412;20.956;2023-07-29T15:13:41;20.85;;;19.42;;
22046;SDS011;11187;49.412;20.956;2023-07-29T15:16:36;22.05;;;20.17;;
22046;SDS011;11187;49.412;20.956;2023-07-29T15:19:32;21.15;;;19.48;;
22046;SDS011;11187;49.412;20.956;2023-07-29T15:22:06;21.65;;;19.83;;
22046;SDS011;11187;49.412;20.956;2023-07-29T15:24:52;22.35;;;20.02;;
22046;SDS011;11187;49.412;20.956;2023-07-29T15:27:29;22.05;;;20.23;;
22046;SDS011;11187;49.412;20.956;2023-07-29T15:30:19;22.20;;;20.48;;
22046;SDS011;11187;49.412;20.956;2023-07-29T15:32:55;22.60;;;21.08;;
22046;SDS011;11187;49.412;20.956;2023-07-29T15:35:42;21.50;;;19.65;;
22046;SDS011;11187;49.412;20.956;2023-07-29T15:38:16;21.08;;;19.45;;
22046;SDS011;11187;49.412;20.956;2023-07-29T15:41:02;21.98;;;20.45;;
22046;SDS011;11187;49.412;20.956;2023-07-29T15:43:36;22.05;;;20.52;;
22046;SDS011;11187;49.412;20.956;2023-07-29T15:46:22;22.63;;;20.92;;
22046;SDS011;11187;49.412;20.956;2023-07-29T15:48:56;22.27;;;20.65;;
22046;SDS011;11187;49.412;20.956;2023-07-29T15:51:42;21.35;;;19.85;;
22046;SDS011;11187;49.412;20.956;2023-07-29T15:54:16;22.40;;;20.30;;
22046;SDS011;11187;49.412;20.956;2023-07-29T15:57:02;24.00;;;22.25;;
22046;SDS011;11187;49.412;20.956;2023-07-29T15:59:36;39.70;;;23.20;;
22046;SDS011;11187;49.412;20.956;2023-07-29T16:02:23;22.90;;;21.30;;
22046;SDS011;11187;49.412;20.956;2023-07-29T16:04:57;23.90;;;21.65;;